WetterOnline ( https://www.wetteronline.at )

Wetter aktuell Bad Hall

Aktuelles Wetter: Linz Flughafen (313m)

6-stündlich | Neueste Meldungen
Ortszeit Temperatur Wetter
Mo, 06.12. 7:00 1.1° C bewölkt
Mo, 06.12. 1:00 0.5° C Sprühregen
So, 05.12. 19:00 1.8° C Sprühregen
So, 05.12. 13:00 3.1° C leichter Regen
So, 05.12. 7:00 1.8° C bedeckt
So, 05.12. 1:00 0.5° C bewölkt
Sa, 04.12. 19:00 -0.2° C gefr. Sprühregen
Sa, 04.12. 13:00 -0.1° C gefrierender Regen
Ortszeit Temperatur Wetter
Mo, 06.12. 9:50 2° C bewölkt
Mo, 06.12. 9:20 1° C bewölkt
Mo, 06.12. 9:00 1.3° C bewölkt
Mo, 06.12. 8:50 1° C bewölkt
Mo, 06.12. 8:20 1° C bewölkt
Mo, 06.12. 8:00 1.2° C bewölkt
Mo, 06.12. 7:50 1° C bewölkt
Mo, 06.12. 7:20 1° C bewölkt
Mo, 06.12. 7:00 1.1° C bewölkt
Mo, 06.12. 6:20 1° C bewölkt
Ortszeit Relative Feuchte Sichtweite
Mo, 06.12. 7:00 95% 9 km
Mo, 06.12. 1:00 99% 5.0 km
So, 05.12. 19:00 96% 13 km
So, 05.12. 13:00 92% 17 km
So, 05.12. 7:00 90% 50 km
So, 05.12. 1:00 99% 6 km
Sa, 04.12. 19:00 99% 3.3 km
Sa, 04.12. 13:00 82% 12 km
Ortszeit Relative Feuchte Sichtweite
Mo, 06.12. 9:50 87% >10 km
Mo, 06.12. 9:20 93% >10 km
Mo, 06.12. 9:00 90% 12 km
Mo, 06.12. 8:50 93% >10 km
Mo, 06.12. 8:20 93% >10 km
Mo, 06.12. 8:00 93% 9 km
Mo, 06.12. 7:50 93% >10 km
Mo, 06.12. 7:20 93% 9 km
Mo, 06.12. 7:00 95% 9 km
Mo, 06.12. 6:20 100% 8 km
Ortszeit Niederschlagsmenge Niederschlagsart
Mo, 06.12. 7:00 0.1 l/m2 in 12 Std. -
Mo, 06.12. 1:00 0.1 l/m2 in 6 Std. -
So, 05.12. 19:00 0.7 l/m2 in 12 Std. -
So, 05.12. 13:00 0.1 l/m2 in 6 Std. -
So, 05.12. 7:00 6 l/m2 in 12 Std. -
So, 05.12. 1:00 6 l/m2 in 6 Std. -
Sa, 04.12. 19:00 4 l/m2 in 12 Std. -
Sa, 04.12. 13:00 1 l/m2 in 6 Std. -
Ortszeit Niederschlagsmenge Niederschlagsart
Mo, 06.12. 9:50 keine Meldung -
Mo, 06.12. 9:20 keine Meldung -
Mo, 06.12. 9:00 0.0 l/m2 in 1 Std. -
Mo, 06.12. 8:50 keine Meldung -
Mo, 06.12. 8:20 keine Meldung -
Mo, 06.12. 8:00 0.0 l/m2 in 1 Std. -
Mo, 06.12. 7:50 keine Meldung -
Mo, 06.12. 7:20 keine Meldung -
Mo, 06.12. 7:00 keine Meldung -
Mo, 06.12. 6:20 keine Meldung -
Ortszeit Stärke Spitze Richtung
km/h Bft. km/h Grad Sektor
Mo, 06.12. 7:00 14 3 - 280° W
Mo, 06.12. 1:00 7 2 - - -
So, 05.12. 19:00 11 2 - - -
So, 05.12. 13:00 7 2 - - -
So, 05.12. 7:00 14 3 - 250° W
So, 05.12. 1:00 4 1 - - -
Sa, 04.12. 19:00 11 2 - - -
Sa, 04.12. 13:00 11 2 - - -
Ortszeit Stärke Spitze Richtung
km/h Bft. km/h Grad Sektor
Mo, 06.12. 9:50 15 3 - 250° W
Mo, 06.12. 9:20 11 2 - 250° W
Mo, 06.12. 9:00 14 3 - 260° W
Mo, 06.12. 8:50 15 3 - 260° W
Mo, 06.12. 8:20 13 3 - 260° W
Mo, 06.12. 8:00 11 2 - 270° W
Mo, 06.12. 7:50 11 2 - 270° W
Mo, 06.12. 7:20 11 2 - 280° W
Mo, 06.12. 7:00 14 3 - 280° W
Mo, 06.12. 6:20 6 1 - 250° W
Ortszeit Untergrenze Bedeckung Gattung
total tief tief mittel hoch
Mo, 06.12. 7:00 180 m 7/8 6/8 - - -
Mo, 06.12. 1:00 180 m 8/8 5/8 - - -
So, 05.12. 19:00 360 m 7/8 6/8 - - -
So, 05.12. 13:00 390 m 8/8 5/8 - - -
So, 05.12. 7:00 1080 m 8/8 5/8 Sc - -
So, 05.12. 1:00 90 m 8/8 7/8 - - -
Sa, 04.12. 19:00 30 m 8/8 5/8 - - -
Sa, 04.12. 13:00 780 m 8/8 6/8 Sc - -
Ortszeit Bedeckungsgrad in Achtel und Wolkenuntergrenze
Mo, 06.12. 9:50 1-2(210m) 5-7(330m)
Mo, 06.12. 9:20 1-2(240m) 5-7(300m)
Mo, 06.12. 9:00 1(240m) 7(300m)
Mo, 06.12. 8:50 1-2(240m) 5-7(300m)
Mo, 06.12. 8:20 1-2(180m) 5-7(270m)
Mo, 06.12. 8:00 1(210m) 5(270m)
Mo, 06.12. 7:50 1-2(210m) 5-7(270m)
Mo, 06.12. 7:20 1-2(180m) 5-7(240m)
Mo, 06.12. 7:00 1(180m) 6(240m)
Mo, 06.12. 6:20 1-2(150m) 5-7(210m)
Ortszeit Luftdruck NN (hPa) Tendenz (hPa in 3 Std.)
Mo, 06.12. 7:00 1013 + 1,5
Mo, 06.12. 1:00 1010 + 0,7
So, 05.12. 19:00 1008 + 1,0
So, 05.12. 13:00 1007 0,0
So, 05.12. 7:00 1006 + 1,6
So, 05.12. 1:00 1003 + 0,2
Sa, 04.12. 19:00 1003 - 0,1
Sa, 04.12. 13:00 1004 - 2,3
Ortszeit Luftdruck NN (hPa) Tendenz (hPa in 3 Std.)
Mo, 06.12. 9:50 1013 keine Meldung
Mo, 06.12. 9:20 1012 keine Meldung
Mo, 06.12. 9:00 1014 + 1,8
Mo, 06.12. 8:50 1012 keine Meldung
Mo, 06.12. 8:20 1012 keine Meldung
Mo, 06.12. 8:00 1013 + 2,1
Mo, 06.12. 7:50 1012 keine Meldung
Mo, 06.12. 7:20 1011 keine Meldung
Mo, 06.12. 7:00 1013 + 1,5
Mo, 06.12. 6:20 1010 keine Meldung
Ortszeit Schneehöhe (cm)
Mo, 06.12. 7:00 0
Mo, 06.12. 1:00 0
So, 05.12. 19:00 -
So, 05.12. 13:00 -
So, 05.12. 7:00 -
So, 05.12. 1:00 0
Sa, 04.12. 19:00 -
Sa, 04.12. 13:00 -
Ortszeit Schneehöhe (cm)
Mo, 06.12. 9:50 -
Mo, 06.12. 9:20 -
Mo, 06.12. 9:00 -
Mo, 06.12. 8:50 -
Mo, 06.12. 8:20 -
Mo, 06.12. 8:00 -
Mo, 06.12. 7:50 -
Mo, 06.12. 7:20 -
Mo, 06.12. 7:00 0
Mo, 06.12. 6:20 -
Link zu dieser Seite / Seite empfehlen

Das Wetter in ...